createdAt,value
2023-05-07T00:02:19.488Z,11.52
2023-05-07T00:04:46.822Z,10.55
2023-05-07T00:07:13.865Z,10.68
2023-05-07T00:09:40.959Z,14.88
2023-05-07T00:12:09.099Z,11.82
2023-05-07T00:14:36.092Z,12.30
2023-05-07T00:17:03.029Z,13.98
2023-05-07T00:19:29.969Z,12.05
2023-05-07T00:21:57.390Z,10.55
2023-05-07T00:24:24.435Z,15.65
2023-05-07T00:26:52.016Z,8.93
2023-05-07T00:29:19.169Z,11.20
2023-05-07T00:31:46.180Z,9.27
2023-05-07T00:34:13.265Z,11.90
2023-05-07T00:36:40.217Z,9.73
2023-05-07T00:39:07.883Z,11.73
2023-05-07T00:41:34.979Z,12.65
2023-05-07T00:44:03.274Z,10.52
2023-05-07T00:46:31.750Z,11.45
2023-05-07T00:48:59.240Z,12.43
2023-05-07T00:51:30.318Z,13.43
2023-05-07T00:53:57.610Z,10.93
2023-05-07T00:56:25.895Z,12.90
2023-05-07T00:58:53.070Z,12.15
2023-05-07T01:01:20.166Z,12.10
2023-05-07T01:03:47.301Z,11.38
2023-05-07T01:06:17.766Z,12.40
2023-05-07T01:08:46.333Z,14.25
2023-05-07T01:11:13.973Z,9.10
2023-05-07T01:13:42.567Z,10.77
2023-05-07T01:16:10.931Z,10.43
2023-05-07T01:18:37.954Z,10.98
2023-05-07T01:21:09.011Z,10.38
2023-05-07T01:23:36.655Z,10.48
2023-05-07T01:26:03.703Z,12.73
2023-05-07T01:28:32.889Z,14.98
2023-05-07T01:31:05.368Z,12.60
2023-05-07T01:33:37.130Z,10.05
2023-05-07T01:36:07.533Z,11.38
2023-05-07T01:38:35.414Z,8.98
2023-05-07T01:41:03.698Z,9.93
2023-05-07T01:43:32.170Z,10.23
2023-05-07T01:45:59.979Z,10.65
2023-05-07T01:48:27.711Z,9.45
2023-05-07T01:50:55.001Z,9.65
2023-05-07T01:53:22.089Z,10.05
2023-05-07T01:55:49.175Z,12.80
2023-05-07T01:58:17.204Z,10.02
2023-05-07T02:00:44.640Z,11.23
2023-05-07T02:03:11.847Z,9.13
2023-05-07T02:05:49.869Z,10.93
2023-05-07T02:08:24.973Z,11.18
2023-05-07T02:10:52.452Z,11.23
2023-05-07T02:13:20.797Z,14.43
2023-05-07T02:15:51.493Z,11.60
2023-05-07T02:18:18.841Z,13.20
2023-05-07T02:20:45.966Z,13.23
2023-05-07T02:23:13.043Z,12.25
2023-05-07T02:25:39.985Z,12.73
2023-05-07T02:28:06.892Z,9.52
2023-05-07T02:30:59.425Z,9.65
2023-05-07T02:33:26.717Z,11.45
2023-05-07T02:35:53.938Z,11.25
2023-05-07T02:38:20.870Z,11.68
2023-05-07T02:40:47.896Z,12.23
2023-05-07T02:43:14.952Z,10.65
2023-05-07T02:45:45.213Z,11.27
2023-05-07T02:48:13.213Z,12.25
2023-05-07T02:50:40.595Z,11.60
2023-05-07T02:53:07.714Z,9.75
2023-05-07T02:55:34.841Z,11.57
2023-05-07T02:58:01.870Z,9.07
2023-05-07T03:00:31.030Z,11.23
2023-05-07T03:03:09.472Z,10.70
2023-05-07T03:05:36.420Z,9.40
2023-05-07T03:08:04.820Z,12.18
2023-05-07T03:10:31.926Z,9.57
2023-05-07T03:12:59.038Z,9.15
2023-05-07T03:15:25.965Z,10.82
2023-05-07T03:17:53.680Z,10.50
2023-05-07T03:20:20.690Z,9.32
2023-05-07T03:22:47.803Z,10.55
2023-05-07T03:25:15.724Z,8.93
2023-05-07T03:27:45.290Z,11.73
2023-05-07T03:30:13.381Z,11.70
2023-05-07T03:32:41.064Z,11.23
2023-05-07T03:35:11.301Z,10.60
2023-05-07T03:37:39.614Z,10.90
2023-05-07T03:40:08.823Z,10.68
2023-05-07T03:42:43.184Z,11.75
2023-05-07T03:45:11.704Z,10.68
2023-05-07T03:47:42.732Z,11.40
2023-05-07T03:50:11.986Z,10.95
2023-05-07T03:52:39.116Z,10.15
2023-05-07T03:55:08.440Z,11.05
2023-05-07T03:57:36.955Z,12.93
2023-05-07T04:00:05.567Z,10.48
2023-05-07T04:02:36.806Z,9.40
2023-05-07T04:05:05.994Z,11.02
2023-05-07T04:07:33.094Z,9.20
2023-05-07T04:10:00.303Z,10.18
2023-05-07T04:12:27.433Z,10.52
2023-05-07T04:14:54.787Z,7.93
2023-05-07T04:17:21.881Z,10.70
2023-05-07T04:19:48.848Z,10.60
2023-05-07T04:22:16.764Z,11.10
2023-05-07T04:24:44.019Z,9.02
2023-05-07T04:27:13.175Z,10.20
2023-05-07T04:29:43.133Z,7.82
2023-05-07T04:32:12.893Z,6.95
2023-05-07T04:34:41.351Z,9.50
2023-05-07T04:37:08.875Z,7.53
2023-05-07T04:39:36.451Z,7.68
2023-05-07T04:42:04.195Z,10.20
2023-05-07T04:44:32.124Z,8.70
2023-05-07T04:46:59.018Z,7.57
2023-05-07T04:49:26.594Z,10.05
2023-05-07T04:51:55.349Z,7.90
2023-05-07T04:54:24.409Z,8.05
2023-05-07T04:56:51.626Z,7.93
2023-05-07T04:59:19.047Z,8.90
2023-05-07T05:01:46.035Z,7.03
2023-05-07T05:04:13.956Z,7.35
2023-05-07T05:06:41.741Z,7.57
2023-05-07T05:09:12.261Z,7.22
2023-05-07T05:11:41.832Z,12.13
2023-05-07T05:14:08.926Z,7.10
2023-05-07T05:16:36.885Z,7.13
2023-05-07T05:19:04.206Z,9.48
2023-05-07T05:21:33.643Z,12.60
2023-05-07T05:24:06.369Z,7.78
2023-05-07T05:26:33.535Z,7.80
2023-05-07T05:29:00.471Z,9.40
2023-05-07T05:31:29.778Z,11.55
2023-05-07T05:33:56.798Z,11.38
2023-05-07T05:36:23.802Z,9.38
2023-05-07T05:38:53.187Z,7.18
2023-05-07T05:41:20.210Z,8.15
2023-05-07T05:43:47.060Z,7.80
2023-05-07T05:46:14.339Z,9.63
2023-05-07T05:48:41.489Z,11.20
2023-05-07T05:51:09.206Z,10.05
2023-05-07T05:53:36.296Z,8.65
2023-05-07T05:56:03.743Z,8.32
2023-05-07T05:58:31.834Z,9.40
2023-05-07T06:01:03.638Z,8.13
2023-05-07T06:03:31.243Z,8.85
2023-05-07T06:06:01.221Z,9.23
2023-05-07T06:08:31.237Z,8.25
2023-05-07T06:10:58.585Z,11.10
2023-05-07T06:13:26.790Z,7.35
2023-05-07T06:15:54.368Z,8.95
2023-05-07T06:18:21.281Z,8.07
2023-05-07T06:20:48.515Z,10.13
2023-05-07T06:23:23.859Z,8.40
2023-05-07T06:25:51.561Z,8.85
2023-05-07T06:28:20.984Z,8.05
2023-05-07T06:30:49.809Z,9.63
2023-05-07T06:33:18.196Z,8.85
2023-05-07T06:35:45.156Z,8.65
2023-05-07T06:38:13.301Z,8.50
2023-05-07T06:40:40.713Z,7.10
2023-05-07T06:43:08.131Z,8.60
2023-05-07T06:45:43.012Z,7.72
2023-05-07T06:48:11.032Z,7.07
2023-05-07T06:50:48.165Z,10.82
2023-05-07T06:53:15.946Z,7.45
2023-05-07T06:55:43.551Z,6.65
2023-05-07T06:58:11.782Z,5.95
2023-05-07T07:00:39.454Z,6.45
2023-05-07T07:03:06.549Z,5.50
2023-05-07T07:05:33.839Z,4.97
2023-05-07T07:08:02.838Z,6.00
2023-05-07T07:10:29.783Z,6.85
2023-05-07T07:13:03.878Z,5.15
2023-05-07T07:15:31.371Z,8.40
2023-05-07T07:17:59.193Z,12.20
2023-05-07T07:20:26.285Z,5.65
2023-05-07T07:22:54.220Z,4.90
2023-05-07T07:25:21.920Z,8.00
2023-05-07T07:27:50.454Z,5.13
2023-05-07T07:30:17.806Z,5.68
2023-05-07T07:32:47.817Z,5.00
2023-05-07T07:35:15.772Z,7.20
2023-05-07T07:37:43.355Z,9.10
2023-05-07T07:40:12.823Z,6.43
2023-05-07T07:42:40.169Z,4.10
2023-05-07T07:45:08.628Z,4.65
2023-05-07T07:47:41.331Z,5.70
2023-05-07T07:50:09.710Z,5.32
2023-05-07T07:52:36.859Z,4.00
2023-05-07T07:55:05.478Z,6.40
2023-05-07T07:57:33.285Z,3.00
2023-05-07T08:00:00.644Z,3.50
2023-05-07T08:02:28.523Z,4.00
2023-05-07T08:04:55.821Z,4.53
2023-05-07T08:07:24.020Z,3.40
2023-05-07T08:09:51.347Z,3.58
2023-05-07T08:12:22.340Z,4.13
2023-05-07T08:14:49.555Z,6.28
2023-05-07T08:17:17.318Z,3.75
2023-05-07T08:19:45.410Z,4.65
2023-05-07T08:22:14.997Z,3.42
2023-05-07T08:24:42.058Z,5.22
2023-05-07T08:27:09.752Z,3.58
2023-05-07T08:29:36.777Z,5.72
2023-05-07T08:32:04.088Z,4.05
2023-05-07T08:34:31.063Z,3.63
2023-05-07T08:36:59.770Z,2.55
2023-05-07T08:39:27.268Z,2.55
2023-05-07T08:41:58.118Z,4.25
2023-05-07T08:44:29.187Z,3.20
2023-05-07T08:47:01.085Z,3.83
2023-05-07T08:49:29.697Z,3.80
2023-05-07T08:51:57.749Z,2.13
2023-05-07T08:54:27.096Z,5.60
2023-05-07T08:56:54.756Z,2.25
2023-05-07T08:59:21.702Z,4.05
2023-05-07T09:01:48.852Z,2.42
2023-05-07T09:04:16.692Z,5.93
2023-05-07T09:06:44.437Z,3.47
2023-05-07T09:09:19.593Z,3.60
2023-05-07T09:11:46.970Z,3.40
2023-05-07T09:14:16.058Z,3.88
2023-05-07T09:16:47.501Z,4.18
2023-05-07T09:19:14.591Z,4.38
2023-05-07T09:21:45.605Z,4.05
2023-05-07T09:24:16.644Z,2.95
2023-05-07T09:26:44.211Z,2.55
2023-05-07T09:29:11.964Z,8.25
2023-05-07T09:31:39.958Z,2.20
2023-05-07T09:34:09.203Z,5.03
2023-05-07T09:36:38.599Z,2.90
2023-05-07T09:39:05.670Z,5.22
2023-05-07T09:41:33.857Z,2.60
2023-05-07T09:44:16.234Z,2.63
2023-05-07T09:46:54.788Z,2.97
2023-05-07T09:49:31.337Z,2.25
2023-05-07T09:54:38.893Z,2.53
2023-05-07T09:57:07.899Z,2.65
2023-05-07T09:59:38.212Z,1.92
2023-05-07T10:02:11.640Z,2.30
2023-05-07T10:04:47.800Z,2.00
2023-05-07T10:07:17.874Z,2.10
2023-05-07T10:09:49.187Z,2.20
2023-05-07T10:12:26.187Z,2.58
2023-05-07T10:14:54.288Z,1.90
2023-05-07T10:17:24.472Z,2.50
2023-05-07T10:19:54.400Z,1.20
2023-05-07T10:22:23.364Z,1.35
2023-05-07T10:24:53.928Z,2.50
2023-05-07T10:27:22.412Z,1.13
2023-05-07T10:30:12.559Z,3.65
2023-05-07T10:32:43.868Z,3.30
2023-05-07T10:35:23.653Z,2.88
2023-05-07T10:37:51.825Z,1.60
2023-05-07T10:40:22.522Z,2.60
2023-05-07T10:43:06.970Z,1.30
2023-05-07T10:45:42.444Z,1.92
2023-05-07T10:50:50.106Z,3.17
2023-05-07T10:53:19.982Z,1.25
2023-05-07T10:56:22.414Z,2.35
2023-05-07T10:58:55.948Z,1.83
2023-05-07T11:01:59.569Z,1.95
2023-05-07T11:04:35.857Z,0.95
2023-05-07T11:07:16.895Z,1.73
2023-05-07T11:09:53.318Z,2.65
2023-05-07T11:12:39.746Z,1.70
2023-05-07T11:15:16.875Z,1.65
2023-05-07T11:17:56.296Z,3.05
2023-05-07T11:20:55.572Z,3.47
2023-05-07T11:23:36.334Z,2.15
2023-05-07T11:26:12.464Z,3.15
2023-05-07T11:28:43.525Z,1.92
2023-05-07T11:31:12.068Z,3.92
2023-05-07T11:33:40.428Z,2.50
2023-05-07T11:36:11.328Z,3.47
2023-05-07T11:38:44.429Z,3.15
2023-05-07T11:41:11.580Z,1.60
2023-05-07T11:43:40.834Z,1.75
2023-05-07T11:46:13.335Z,1.10
2023-05-07T11:48:40.790Z,2.92
2023-05-07T11:51:14.116Z,1.35
2023-05-07T11:53:43.894Z,1.58
2023-05-07T11:56:19.040Z,2.60
2023-05-07T11:58:48.220Z,1.85
2023-05-07T12:01:17.361Z,1.90
2023-05-07T12:03:47.358Z,2.30
2023-05-07T12:06:17.126Z,2.08
2023-05-07T12:08:47.951Z,1.67
2023-05-07T12:11:24.673Z,3.33
2023-05-07T12:13:52.458Z,1.10
2023-05-07T12:16:20.535Z,2.75
2023-05-07T12:18:48.039Z,2.55
2023-05-07T12:21:15.910Z,2.50
2023-05-07T12:23:42.846Z,1.77
2023-05-07T12:26:09.858Z,12.70
2023-05-07T12:28:40.500Z,2.28
2023-05-07T12:31:08.516Z,1.73
2023-05-07T12:33:36.748Z,1.30
2023-05-07T12:36:09.024Z,1.88
2023-05-07T12:38:38.598Z,2.33
2023-05-07T12:41:08.274Z,1.83
2023-05-07T12:43:35.534Z,1.20
2023-05-07T12:46:07.903Z,1.40
2023-05-07T12:48:39.554Z,6.22
2023-05-07T12:51:08.474Z,1.20
2023-05-07T12:53:43.476Z,1.30
2023-05-07T12:56:10.677Z,1.00
2023-05-07T12:58:37.706Z,0.90
2023-05-07T13:01:11.146Z,1.67
2023-05-07T13:03:39.566Z,1.00
2023-05-07T13:06:16.170Z,1.95
2023-05-07T13:08:46.395Z,1.75
2023-05-07T13:11:14.741Z,0.90
2023-05-07T13:13:42.371Z,0.85
2023-05-07T13:16:12.470Z,1.88
2023-05-07T13:18:41.504Z,1.02
2023-05-07T13:21:08.812Z,1.10
2023-05-07T13:23:35.996Z,5.60
2023-05-07T13:26:08.513Z,2.33
2023-05-07T13:28:38.686Z,1.98
2023-05-07T13:31:05.806Z,2.40
2023-05-07T13:33:32.751Z,0.80
2023-05-07T13:36:01.498Z,1.38
2023-05-07T13:38:28.646Z,1.13
2023-05-07T13:40:55.600Z,3.50
2023-05-07T13:43:22.533Z,1.65
2023-05-07T13:45:49.583Z,1.20
2023-05-07T13:48:16.672Z,1.45
2023-05-07T13:50:43.793Z,2.67
2023-05-07T13:53:10.740Z,1.95
2023-05-07T13:55:37.679Z,1.40
2023-05-07T13:58:06.995Z,1.30
2023-05-07T14:00:34.258Z,2.40
2023-05-07T14:03:01.180Z,2.65
2023-05-07T14:05:29.387Z,2.03
2023-05-07T14:07:58.842Z,2.47
2023-05-07T14:10:26.765Z,1.73
2023-05-07T14:12:53.967Z,2.45
2023-05-07T14:15:21.476Z,2.90
2023-05-07T14:17:48.561Z,2.97
2023-05-07T14:20:15.708Z,2.70
2023-05-07T14:22:42.861Z,1.08
2023-05-07T14:25:13.910Z,2.83
2023-05-07T14:27:41.489Z,1.52
2023-05-07T14:30:09.106Z,2.88
2023-05-07T14:32:36.052Z,2.38
2023-05-07T14:35:03.112Z,2.28
2023-05-07T14:37:30.123Z,1.17
2023-05-07T14:39:57.001Z,4.35
2023-05-07T14:42:24.115Z,1.10
2023-05-07T14:44:51.035Z,1.33
2023-05-07T14:47:19.917Z,1.88
2023-05-07T14:49:47.126Z,1.83
2023-05-07T14:52:14.227Z,2.10
2023-05-07T14:54:41.379Z,1.83
2023-05-07T14:57:11.086Z,1.00
2023-05-07T14:59:39.438Z,2.25
2023-05-07T15:02:09.095Z,2.05
2023-05-07T15:04:39.111Z,1.67
2023-05-07T15:07:06.009Z,0.90
2023-05-07T15:09:33.125Z,1.00
2023-05-07T15:12:00.219Z,1.98
2023-05-07T15:14:27.333Z,1.80
2023-05-07T15:16:54.250Z,0.75
2023-05-07T15:19:22.845Z,2.15
2023-05-07T15:21:49.724Z,1.90
2023-05-07T15:24:16.652Z,1.67
2023-05-07T15:26:43.811Z,2.40
2023-05-07T15:29:11.216Z,1.92
2023-05-07T15:31:39.821Z,2.47
2023-05-07T15:34:07.399Z,1.10
2023-05-07T15:36:34.634Z,1.30
2023-05-07T15:39:03.910Z,1.30
2023-05-07T15:41:31.412Z,2.10
2023-05-07T15:43:58.475Z,1.33
2023-05-07T15:46:26.921Z,1.52
2023-05-07T15:48:54.757Z,1.35
2023-05-07T15:51:22.741Z,1.42
2023-05-07T15:53:51.849Z,4.10
2023-05-07T15:56:18.852Z,1.00
2023-05-07T15:58:46.526Z,1.33
2023-05-07T16:01:13.660Z,2.08
2023-05-07T16:03:41.951Z,1.63
2023-05-07T16:06:12.010Z,1.92
2023-05-07T16:08:40.774Z,4.28
2023-05-07T16:11:07.730Z,2.15
2023-05-07T16:13:37.032Z,1.45
2023-05-07T16:16:04.820Z,1.20
2023-05-07T16:18:31.838Z,1.50
2023-05-07T16:21:00.567Z,1.38
2023-05-07T16:23:27.802Z,2.25
2023-05-07T16:25:54.906Z,1.80
2023-05-07T16:28:24.106Z,1.20
2023-05-07T16:30:52.837Z,2.35
2023-05-07T16:33:20.017Z,1.17
2023-05-07T16:35:52.695Z,2.72
2023-05-07T16:38:20.112Z,3.13
2023-05-07T16:40:47.364Z,2.03
2023-05-07T16:43:14.401Z,2.28
2023-05-07T16:45:41.358Z,2.35
2023-05-07T16:48:08.766Z,1.65
2023-05-07T16:50:36.098Z,4.50
2023-05-07T16:53:03.221Z,3.65
2023-05-07T16:55:36.187Z,1.88
2023-05-07T16:58:09.978Z,2.60
2023-05-07T17:00:49.173Z,1.52
2023-05-07T17:03:19.273Z,1.73
2023-05-07T17:05:46.927Z,1.58
2023-05-07T17:08:14.603Z,2.00
2023-05-07T17:10:42.194Z,1.33
2023-05-07T17:13:09.275Z,1.27
2023-05-07T17:15:36.638Z,1.13
2023-05-07T17:18:03.933Z,1.25
2023-05-07T17:20:34.746Z,1.45
2023-05-07T17:23:01.910Z,2.08
2023-05-07T17:25:28.889Z,1.45
2023-05-07T17:27:56.087Z,2.55
2023-05-07T17:30:23.226Z,2.03
2023-05-07T17:32:50.476Z,1.00
2023-05-07T17:35:17.738Z,2.17
2023-05-07T17:37:52.343Z,0.82
2023-05-07T17:40:22.374Z,3.55
2023-05-07T17:42:52.484Z,1.98
2023-05-07T17:45:22.836Z,1.92
2023-05-07T17:47:49.784Z,1.50
2023-05-07T17:50:16.833Z,1.13
2023-05-07T17:52:43.737Z,1.65
2023-05-07T17:55:10.986Z,1.58
2023-05-07T17:57:38.496Z,1.27
2023-05-07T18:00:10.337Z,1.73
2023-05-07T18:02:37.982Z,1.35
2023-05-07T18:05:05.508Z,1.65
2023-05-07T18:07:32.493Z,1.73
2023-05-07T18:09:59.532Z,1.17
2023-05-07T18:12:27.752Z,3.17
2023-05-07T18:14:54.976Z,3.17
2023-05-07T18:17:24.255Z,2.92
2023-05-07T18:19:54.776Z,3.20
2023-05-07T18:22:22.443Z,1.75
2023-05-07T18:24:51.104Z,3.28
2023-05-07T18:27:18.786Z,1.92
2023-05-07T18:29:45.841Z,3.28
2023-05-07T18:32:14.014Z,3.60
2023-05-07T18:34:41.409Z,1.60
2023-05-07T18:37:08.676Z,1.92
2023-05-07T18:39:36.339Z,2.15
2023-05-07T18:42:05.418Z,1.77
2023-05-07T18:44:33.255Z,2.10
2023-05-07T18:47:00.449Z,4.10
2023-05-07T18:49:27.725Z,2.10
2023-05-07T18:51:55.321Z,1.33
2023-05-07T18:54:22.467Z,1.88
2023-05-07T18:56:49.594Z,1.88
2023-05-07T18:59:16.827Z,1.63
2023-05-07T19:01:44.139Z,4.70
2023-05-07T19:04:12.035Z,1.42
2023-05-07T19:06:38.995Z,4.15
2023-05-07T19:09:05.940Z,3.05
2023-05-07T19:11:33.145Z,3.95
2023-05-07T19:14:02.273Z,2.80
2023-05-07T19:16:31.861Z,1.95
2023-05-07T19:18:59.250Z,1.98
2023-05-07T19:21:27.998Z,3.35
2023-05-07T19:23:57.357Z,3.15
2023-05-07T19:26:24.878Z,2.30
2023-05-07T19:29:01.689Z,5.05
2023-05-07T19:34:06.116Z,3.25
2023-05-07T19:36:34.388Z,2.13
2023-05-07T19:39:01.480Z,4.65
2023-05-07T19:41:29.054Z,2.10
2023-05-07T19:43:56.261Z,2.08
2023-05-07T19:46:23.445Z,2.10
2023-05-07T19:48:50.940Z,2.95
2023-05-07T19:51:18.015Z,2.63
2023-05-07T19:53:45.179Z,2.95
2023-05-07T19:56:12.629Z,3.63
2023-05-07T19:58:39.843Z,3.92
2023-05-07T20:01:07.055Z,2.88
2023-05-07T20:03:35.318Z,4.15
2023-05-07T20:06:03.063Z,3.00
2023-05-07T20:08:30.859Z,5.43
2023-05-07T20:10:59.919Z,2.83
2023-05-07T20:13:27.572Z,3.38
2023-05-07T20:16:02.683Z,5.82
2023-05-07T20:18:29.799Z,4.43
2023-05-07T20:20:58.465Z,3.50
2023-05-07T20:23:26.140Z,3.83
2023-05-07T20:25:53.117Z,4.40
2023-05-07T20:28:20.406Z,3.22
2023-05-07T20:30:47.408Z,4.47
2023-05-07T20:33:14.666Z,3.95
2023-05-07T20:35:41.627Z,5.25
2023-05-07T20:38:08.631Z,3.42
2023-05-07T20:40:37.879Z,3.95
2023-05-07T20:43:08.198Z,4.05
2023-05-07T20:45:35.345Z,4.82
2023-05-07T20:48:02.551Z,3.00
2023-05-07T20:50:29.831Z,4.15
2023-05-07T20:52:56.847Z,3.03
2023-05-07T20:55:23.829Z,3.83
2023-05-07T20:57:50.916Z,3.88
2023-05-07T21:00:18.601Z,3.88
2023-05-07T21:02:46.003Z,4.38
2023-05-07T21:05:13.757Z,4.68
2023-05-07T21:07:40.942Z,4.18
2023-05-07T21:10:08.673Z,4.97
2023-05-07T21:12:36.131Z,3.15
2023-05-07T21:15:03.771Z,5.30
2023-05-07T21:17:33.114Z,2.67
2023-05-07T21:20:00.024Z,3.72
2023-05-07T21:22:27.246Z,2.90
2023-05-07T21:24:54.298Z,3.72
2023-05-07T21:27:21.253Z,5.80
2023-05-07T21:29:48.388Z,4.20
2023-05-07T21:32:15.567Z,3.08
2023-05-07T21:34:42.751Z,4.25
2023-05-07T21:37:09.643Z,4.20
2023-05-07T21:39:36.812Z,6.38
2023-05-07T21:42:04.059Z,4.13
2023-05-07T21:44:31.653Z,4.60
2023-05-07T21:46:58.780Z,5.13
2023-05-07T21:49:25.780Z,3.22
2023-05-07T21:51:52.731Z,4.00
2023-05-07T21:54:19.793Z,4.60
2023-05-07T21:56:48.703Z,3.65
2023-05-07T21:59:17.103Z,4.75
2023-05-07T22:01:44.398Z,3.83
2023-05-07T22:04:11.459Z,5.32
2023-05-07T22:06:38.605Z,3.33
2023-05-07T22:09:06.218Z,3.30
2023-05-07T22:11:33.364Z,4.88
2023-05-07T22:14:00.765Z,4.38
2023-05-07T22:16:27.948Z,3.78
2023-05-07T22:18:55.221Z,3.80
2023-05-07T22:21:22.417Z,3.50
2023-05-07T22:23:49.410Z,3.78
2023-05-07T22:26:16.705Z,3.85
2023-05-07T22:28:44.127Z,5.13
2023-05-07T22:31:11.445Z,4.90
2023-05-07T22:33:38.528Z,3.33
2023-05-07T22:36:07.749Z,2.70
2023-05-07T22:38:34.630Z,3.95
2023-05-07T22:41:01.530Z,4.78
2023-05-07T22:43:28.737Z,4.03
2023-05-07T22:46:02.296Z,4.13
2023-05-07T22:48:29.843Z,3.25
2023-05-07T22:50:56.823Z,4.40
2023-05-07T22:53:24.063Z,4.53
2023-05-07T22:55:51.146Z,5.43
2023-05-07T22:58:18.085Z,5.30
2023-05-07T23:00:45.180Z,3.95
2023-05-07T23:03:12.927Z,3.63
2023-05-07T23:05:40.177Z,3.90
2023-05-07T23:08:07.040Z,4.32
2023-05-07T23:10:34.977Z,5.30
2023-05-07T23:13:02.253Z,4.40
2023-05-07T23:15:29.353Z,3.65
2023-05-07T23:17:56.409Z,3.25
2023-05-07T23:20:23.534Z,7.40
2023-05-07T23:22:50.558Z,3.58
2023-05-07T23:25:18.086Z,4.03
2023-05-07T23:27:45.174Z,3.17
2023-05-07T23:30:13.326Z,4.63
2023-05-07T23:32:40.974Z,4.60
2023-05-07T23:35:08.836Z,4.55
2023-05-07T23:37:36.228Z,3.95
2023-05-07T23:40:03.632Z,5.72
2023-05-07T23:42:30.694Z,4.45
2023-05-07T23:44:57.738Z,3.85
2023-05-07T23:47:24.768Z,6.60
2023-05-07T23:49:51.781Z,4.55
2023-05-07T23:52:18.913Z,4.82
2023-05-07T23:54:45.883Z,5.22
2023-05-07T23:57:14.163Z,4.70
2023-05-07T23:59:41.435Z,4.82
